DW8078 Prabuty PL current weather conditions

sailwx.info

Wind from 188 at 6 knots gusting 14

Air temperature -0.6° C
Dewpoint -3.2° C

Last reported at 2019-Dec-11 15:46 UTC.
Time now 2019-Dec-11 17:01 UTC

Location: N 53°45' E 019°12'.
View on Google Maps.

See reports from other nearby stations

  
Tides and Currents Weather Stations Pressure Air Temp Water Temp Dewpoint Dewpoint Depression Visibility Wind Speed Wind Dir Waves Ship Positions
date/time (UTC)wind fromknots sea level pressurealtimeterstation pressurevisibilityair tempwater tempwave heightnotes
2019-Dec-11 15:46 188 6 gusting 14 -0.6
2019-Dec-11 15:31 219 4 gusting 13 -0.6
2019-Dec-11 15:15 188 6 gusting 10 -0.6
2019-Dec-11 15:00 180 5 gusting 13 -0.6
2019-Dec-11 14:45 201 4 gusting 10 -0.6
2019-Dec-11 14:30 190 5 gusting 13 -0.0
2019-Dec-11 14:15 171 6 gusting 14 -0.0
2019-Dec-11 14:00 185 5 gusting 13 -0.0
2019-Dec-11 13:45 209 6 gusting 13 0.6
2019-Dec-11 13:30 230 5 gusting 13 0.6
2019-Dec-11 13:15 217 4 gusting 10 0.6
2019-Dec-11 13:00 238 5 gusting 11 0.6
2019-Dec-11 12:45 203 4 gusting 12 1.1
2019-Dec-11 12:30 221 2 gusting 11 1.1
2019-Dec-11 12:16 213 3 gusting 9 1.1
2019-Dec-11 12:03 198 4 gusting 16 0.6
2019-Dec-11 11:48 257 6 gusting 13 0.6
2019-Dec-11 11:32 229 4 gusting 12 0.6
2019-Dec-11 11:16 227 3 gusting 11 -0.0
2019-Dec-11 11:02 232 1 gusting 8 -0.0
2019-Dec-11 10:47 265 6 gusting 13 -0.0
2019-Dec-11 10:33 234 7 gusting 13 -0.0
2019-Dec-11 10:19 232 6 gusting 15 -0.0
2019-Dec-11 10:01 271 7 gusting 14 -0.0
2019-Dec-11 09:47 227 6 gusting 13 -0.6
2019-Dec-11 09:32 191 5 gusting 13 -0.6
2019-Dec-11 09:17 243 5 gusting 13 -0.6
2019-Dec-11 09:01 200 3 gusting 13 -1.1
2019-Dec-11 08:46 250 4 gusting 10 -1.1
2019-Dec-11 08:31 263 6 gusting 14 -1.7
2019-Dec-11 08:16 209 4 gusting 13 -1.7
2019-Dec-11 08:01 242 6 gusting 14 -2.2
2019-Dec-11 07:47 221 5 gusting 11 -2.2
2019-Dec-11 07:31 200 4 gusting 11 -2.2
2019-Dec-11 07:15 183 3 gusting 9 -2.2
2019-Dec-11 07:00 209 1 gusting 8 -2.2
2019-Dec-11 06:46 211 4 gusting 10 -2.2
2019-Dec-11 06:30 190 3 gusting 9 -2.2
2019-Dec-11 06:15 211 4 gusting 10 -2.2
2019-Dec-11 06:03 185 2 gusting 6 -2.8
2019-Dec-11 05:47 211 2 gusting 7 -2.8
2019-Dec-11 05:32 219 2 gusting 6 -2.8
2019-Dec-11 05:16 216 0 gusting 6 -2.8
2019-Dec-11 05:04 203 -3.3
2019-Dec-11 04:46 206 -3.3
2019-Dec-11 04:34 248 -3.3
2019-Dec-11 04:17 252 -3.3
2019-Dec-11 04:01 239 -3.3
2019-Dec-11 03:47 203 -3.3
2019-Dec-11 03:31 263 -3.3
2019-Dec-11 03:18 202 2 gusting 6 -3.3
2019-Dec-11 03:04 207 2 gusting 6 -2.8
2019-Dec-11 02:47 212 -2.8
2019-Dec-11 02:33 223 -2.8
2019-Dec-11 02:16 225 -2.8
2019-Dec-11 02:01 225 1 gusting 5 -2.8
2019-Dec-11 01:46 238 -2.8
2019-Dec-11 01:31 262 -2.8
2019-Dec-11 01:17 218 -2.8
2019-Dec-11 01:02 205 -2.8
2019-Dec-11 00:45 250 1 gusting 5 -2.8
2019-Dec-11 00:30 268 0 gusting 4 -2.8
2019-Dec-11 00:15 252 -2.8
2019-Dec-11 00:00 218 -2.8
2019-Dec-10 23:46 218 -2.8
2019-Dec-10 23:31 237 -2.8
2019-Dec-10 23:16 214 -2.8
2019-Dec-10 23:00 226 -2.2
2019-Dec-10 22:45 215 -2.8
2019-Dec-10 22:32 228 -2.8
2019-Dec-10 22:15 312 -2.8
2019-Dec-10 22:00 312 -2.8
2019-Dec-10 21:46 312 -2.8
2019-Dec-10 15:03 341 6 gusting 10 1.1
2019-Dec-10 14:47 355 6 gusting 12 1.1
2019-Dec-10 14:33 329 5 gusting 12 1.7
2019-Dec-10 14:17 331 6 gusting 10 1.7
2019-Dec-10 14:02 349 6 gusting 13 2.2
2019-Dec-10 13:47 317 6 gusting 14 2.8
2019-Dec-10 13:32 323 8 gusting 14 2.8
2019-Dec-10 13:17 338 6 gusting 14 2.8
2019-Dec-10 13:01 342 10 gusting 18 2.8
2019-Dec-10 12:45 348 6 gusting 14 2.8
2019-Dec-10 12:31 355 7 gusting 15 2.8
2019-Dec-10 12:15 034 7 gusting 19 2.8
2019-Dec-10 12:01 342 6 gusting 14 2.8
2019-Dec-10 11:45 355 6 gusting 14 2.8
2019-Dec-10 11:31 336 8 gusting 17 3.3
2019-Dec-10 11:15 015 7 gusting 18 3.3
2019-Dec-10 11:00 311 9 gusting 19 2.8
2019-Dec-10 10:45 344 8 gusting 15 2.8
2019-Dec-10 10:30 330 11 gusting 18 2.8
2019-Dec-10 10:15 343 11 gusting 19 2.8
2019-Dec-10 10:00 326 10 gusting 19 2.8
2019-Dec-10 09:45 326 12 gusting 19 2.8
2019-Dec-10 09:30 340 8 gusting 14 2.8
2019-Dec-10 09:18 318 10 gusting 15 2.2
2019-Dec-10 09:02 323 9 gusting 15 2.2
2019-Dec-10 08:46 307 11 gusting 19 2.2
2019-Dec-10 08:31 307 11 gusting 17 2.2
2019-Dec-10 08:16 288 9 gusting 15 2.8
2019-Dec-10 08:01 296 11 gusting 17 2.8
2019-Dec-10 07:46 304 10 gusting 17 2.8
2019-Dec-10 07:31 290 7 gusting 14 2.8
2019-Dec-10 07:16 296 8 gusting 14 2.8
2019-Dec-10 07:00 317 10 gusting 17 2.8
2019-Dec-10 06:46 322 9 gusting 15 2.8
2019-Dec-10 06:30 297 11 gusting 14 2.8
2019-Dec-10 06:16 296 7 gusting 15 3.3
2019-Dec-10 06:00 306 13 gusting 20 3.3
2019-Dec-10 05:46 288 12 gusting 18 3.3
2019-Dec-10 05:31 296 9 gusting 15 3.3
2019-Dec-10 05:15 313 8 gusting 13 3.3
2019-Dec-10 05:00 313 10 gusting 16 3.3
2019-Dec-10 04:45 317 8 gusting 13 3.3
2019-Dec-10 04:30 290 10 gusting 15 3.9
2019-Dec-10 04:15 257 6 gusting 13 3.9
2019-Dec-10 04:00 314 7 gusting 10 3.9
2019-Dec-10 03:45 292 7 gusting 12 3.9
2019-Dec-10 03:30 279 6 gusting 10 3.9
2019-Dec-10 03:17 280 7 gusting 11 3.9
2019-Dec-10 03:02 272 6 gusting 10 4.4
2019-Dec-10 02:47 271 5 gusting 11 4.4
2019-Dec-10 02:33 295 6 gusting 9 4.4
2019-Dec-10 02:16 277 6 gusting 9 4.4
2019-Dec-10 02:01 304 4 gusting 10 4.4
2019-Dec-10 01:46 288 6 gusting 10 5.0
2019-Dec-10 01:31 288 5 gusting 9 5.0
2019-Dec-10 01:17 292 6 gusting 9 4.4
2019-Dec-10 01:01 263 5 gusting 10 4.4
2019-Dec-10 00:46 264 4 gusting 8 3.9
2019-Dec-10 00:31 267 4 gusting 8 4.4
2019-Dec-10 00:16 283 5 gusting 9 4.4
2019-Dec-10 00:00 256 6 gusting 10 3.9
2019-Dec-09 23:45 254 4 gusting 7 3.9
2019-Dec-09 23:30 275 3 gusting 6 3.3
2019-Dec-09 23:16 228 4 gusting 6 3.9
2019-Dec-09 23:01 240 5 gusting 8 3.9
2019-Dec-09 22:46 273 5 gusting 8 3.9
2019-Dec-09 22:31 269 4 gusting 7 3.3
2019-Dec-09 22:15 273 3 gusting 7 3.9
2019-Dec-09 22:00 264 3 gusting 7 3.9
2019-Dec-09 21:45 257 4 gusting 9 3.9
2019-Dec-09 21:30 248 4 gusting 9 3.9
2019-Dec-09 21:15 264 4 gusting 7 3.9
2019-Dec-09 21:00 254 4 gusting 6 3.9
2019-Dec-09 20:45 273 3 gusting 7 3.9
2019-Dec-09 20:30 250 2 gusting 6 3.3
2019-Dec-09 20:15 269 3 gusting 7 3.9
2019-Dec-09 20:00 259 3 gusting 6 3.3
2019-Dec-09 19:45 211 1 gusting 7 3.3
2019-Dec-09 19:30 227 2 gusting 6 3.3
2019-Dec-09 19:15 225 0 gusting 6 3.3
2019-Dec-09 19:00 220 4 gusting 6 3.3
2019-Dec-09 18:45 217 3 gusting 6 3.9
2019-Dec-09 18:30 246 3 gusting 6 3.9
2019-Dec-09 18:15 259 3 gusting 6 3.9
2019-Dec-09 18:01 232 2 gusting 6 3.9
2019-Dec-09 17:47 252 4.4
2019-Dec-09 17:17 250 4 gusting 7 4.4
2019-Dec-09 17:01 254 2 gusting 5 4.4